createdAt,value
2019-04-04T00:00:08.276Z,13.33
2019-04-04T00:02:38.742Z,13.10
2019-04-04T00:05:09.049Z,13.93
2019-04-04T00:07:39.451Z,12.30
2019-04-04T00:10:09.903Z,12.90
2019-04-04T00:12:40.237Z,13.23
2019-04-04T00:15:10.528Z,12.67
2019-04-04T00:17:40.853Z,12.33
2019-04-04T00:20:12.941Z,13.47
2019-04-04T00:22:43.273Z,12.73
2019-04-04T00:25:13.569Z,12.67
2019-04-04T00:27:44.675Z,13.53
2019-04-04T00:30:16.126Z,13.17
2019-04-04T00:32:47.169Z,12.73
2019-04-04T00:35:17.423Z,13.00
2019-04-04T00:37:47.668Z,11.33
2019-04-04T00:40:19.041Z,12.80
2019-04-04T00:42:49.339Z,12.73
2019-04-04T00:45:19.624Z,12.80
2019-04-04T00:47:49.994Z,13.40
2019-04-04T00:50:20.243Z,13.57
2019-04-04T00:52:50.512Z,12.70
2019-04-04T00:55:21.110Z,12.33
2019-04-04T00:57:51.456Z,12.13
2019-04-04T01:00:22.018Z,12.33
2019-04-04T01:02:53.757Z,12.17
2019-04-04T01:05:24.002Z,12.67
2019-04-04T01:07:54.409Z,12.83
2019-04-04T01:10:24.675Z,13.13
2019-04-04T01:12:54.976Z,12.57
2019-04-04T01:15:25.173Z,12.10
2019-04-04T01:17:55.598Z,11.07
2019-04-04T01:20:26.788Z,12.90
2019-04-04T01:22:57.533Z,13.67
2019-04-04T01:25:27.876Z,11.90
2019-04-04T01:27:58.496Z,11.93
2019-04-04T01:30:28.871Z,11.33
2019-04-04T01:32:59.479Z,11.50
2019-04-04T01:35:29.816Z,11.43
2019-04-04T01:38:03.089Z,11.77
2019-04-04T01:40:33.964Z,11.97
2019-04-04T01:43:04.164Z,12.00
2019-04-04T01:45:34.396Z,10.13
2019-04-04T01:48:04.595Z,11.20
2019-04-04T01:50:34.898Z,11.03
2019-04-04T01:53:05.486Z,11.67
2019-04-04T01:55:36.764Z,11.67
2019-04-04T01:58:07.908Z,12.27
2019-04-04T02:00:38.932Z,11.30
2019-04-04T02:03:09.141Z,11.30
2019-04-04T02:05:39.980Z,10.80
2019-04-04T02:08:10.198Z,10.90
2019-04-04T02:10:40.631Z,11.33
2019-04-04T02:13:11.240Z,11.17
2019-04-04T02:15:42.849Z,11.37
2019-04-04T02:18:13.346Z,11.63
2019-04-04T02:20:43.899Z,10.40
2019-04-04T02:23:14.196Z,9.90
2019-04-04T02:25:44.436Z,10.43
2019-04-04T02:28:14.654Z,10.63
2019-04-04T02:30:48.029Z,10.77
2019-04-04T02:33:17.044Z,10.67
2019-04-04T02:35:47.391Z,10.30
2019-04-04T02:38:17.579Z,10.83
2019-04-04T02:40:47.827Z,11.00
2019-04-04T02:43:18.108Z,10.73
2019-04-04T02:45:48.861Z,9.97
2019-04-04T02:48:23.409Z,9.53
2019-04-04T02:50:51.318Z,9.90
2019-04-04T02:53:21.567Z,10.97
2019-04-04T02:55:51.848Z,10.07
2019-04-04T02:58:22.017Z,10.23
2019-04-04T03:00:52.520Z,9.37
2019-04-04T03:03:23.872Z,9.90
2019-04-04T03:05:54.033Z,9.53
2019-04-04T03:08:24.310Z,10.33
2019-04-04T03:10:54.538Z,10.27
2019-04-04T03:13:24.757Z,9.67
2019-04-04T03:15:54.984Z,10.47
2019-04-04T03:18:25.262Z,9.63
2019-04-04T03:20:55.906Z,9.53
2019-04-04T03:23:26.154Z,10.70
2019-04-04T03:25:56.457Z,10.20
2019-04-04T03:28:31.510Z,10.37
2019-04-04T03:31:02.903Z,10.43
2019-04-04T03:33:32.627Z,9.43
2019-04-04T03:36:03.110Z,9.80
2019-04-04T03:38:33.419Z,10.00
2019-04-04T03:41:03.643Z,11.43
2019-04-04T03:43:33.857Z,10.73
2019-04-04T03:46:04.045Z,9.60
2019-04-04T03:48:34.301Z,9.57
2019-04-04T03:51:05.216Z,11.37
2019-04-04T03:53:36.249Z,9.07
2019-04-04T03:56:06.478Z,10.13
2019-04-04T03:58:36.761Z,9.60
2019-04-04T04:01:07.108Z,10.67
2019-04-04T04:03:37.512Z,9.87
2019-04-04T04:06:08.852Z,9.43
2019-04-04T04:08:39.737Z,9.17
2019-04-04T04:11:09.939Z,9.87
2019-04-04T04:13:40.521Z,9.90
2019-04-04T04:16:12.830Z,10.03
2019-04-04T04:18:43.115Z,9.40
2019-04-04T04:21:13.419Z,8.33
2019-04-04T04:23:43.890Z,9.53
2019-04-04T04:26:14.128Z,9.60
2019-04-04T04:28:44.864Z,9.90
2019-04-04T04:31:15.595Z,9.30
2019-04-04T04:33:46.118Z,9.60
2019-04-04T04:36:17.935Z,10.13
2019-04-04T04:38:48.272Z,10.87
2019-04-04T04:41:20.459Z,8.87
2019-04-04T04:43:50.475Z,10.00
2019-04-04T04:46:20.694Z,9.47
2019-04-04T04:48:51.335Z,9.57
2019-04-04T04:51:21.589Z,10.37
2019-04-04T04:53:52.008Z,9.77
2019-04-04T04:56:22.217Z,9.67
2019-04-04T04:58:55.341Z,9.63
2019-04-04T05:01:25.039Z,9.90
2019-04-04T05:03:56.548Z,9.10
2019-04-04T05:06:27.286Z,9.37
2019-04-04T05:09:01.099Z,8.30
2019-04-04T05:11:32.685Z,8.90
2019-04-04T05:14:03.290Z,8.33
2019-04-04T05:16:33.577Z,8.10
2019-04-04T05:19:04.004Z,8.97
2019-04-04T05:21:34.761Z,8.83
2019-04-04T05:24:05.159Z,8.43
2019-04-04T05:26:38.501Z,8.67
2019-04-04T05:29:08.768Z,8.80
2019-04-04T05:31:39.440Z,7.97
2019-04-04T05:34:09.752Z,8.00
2019-04-04T05:36:45.266Z,7.67
2019-04-04T05:39:18.113Z,8.83
2019-04-04T05:41:48.569Z,8.57
2019-04-04T05:44:19.044Z,8.07
2019-04-04T05:46:52.011Z,8.23
2019-04-04T05:49:21.893Z,8.27
2019-04-04T05:51:52.168Z,8.13
2019-04-04T05:54:22.366Z,7.80
2019-04-04T05:56:52.644Z,8.70
2019-04-04T05:59:23.925Z,8.03
2019-04-04T06:01:56.418Z,8.60
2019-04-04T06:04:27.405Z,8.73
2019-04-04T06:06:57.733Z,7.77
2019-04-04T06:09:27.971Z,8.30
2019-04-04T06:11:58.600Z,8.97
2019-04-04T06:14:30.005Z,9.60
2019-04-04T06:17:01.295Z,8.80
2019-04-04T06:19:31.645Z,7.60
2019-04-04T06:22:03.589Z,7.80
2019-04-04T06:24:33.818Z,8.30
2019-04-04T06:27:04.675Z,8.23
2019-04-04T06:29:36.505Z,8.60
2019-04-04T06:32:07.656Z,8.47
2019-04-04T06:34:38.044Z,8.57
2019-04-04T06:37:13.424Z,7.73
2019-04-04T06:39:47.880Z,7.90
2019-04-04T06:42:22.805Z,7.30
2019-04-04T06:45:02.923Z,8.23
2019-04-04T06:47:43.141Z,7.83
2019-04-04T06:50:22.341Z,7.77
2019-04-04T06:53:01.627Z,7.60
2019-04-04T06:55:39.731Z,7.90
2019-04-04T06:58:17.068Z,7.47
2019-04-04T07:00:49.922Z,8.10
2019-04-04T07:03:20.172Z,8.33
2019-04-04T07:05:51.898Z,7.00
2019-04-04T07:08:29.155Z,7.27
2019-04-04T07:11:03.234Z,7.70
2019-04-04T07:13:42.205Z,7.20
2019-04-04T07:16:08.033Z,7.43
2019-04-04T07:18:39.061Z,7.27
2019-04-04T07:21:10.748Z,7.47
2019-04-04T07:23:42.085Z,7.80
2019-04-04T07:26:14.890Z,7.50
2019-04-04T07:28:44.850Z,8.20
2019-04-04T07:31:17.554Z,8.10
2019-04-04T07:33:49.387Z,7.53
2019-04-04T07:36:20.228Z,7.80
2019-04-04T07:38:51.122Z,7.60
2019-04-04T07:41:21.465Z,7.20
2019-04-04T07:43:52.360Z,8.43
2019-04-04T07:46:22.711Z,7.73
2019-04-04T07:48:58.690Z,8.03
2019-04-04T07:51:36.300Z,6.87
2019-04-04T07:54:07.378Z,6.73
2019-04-04T07:56:38.823Z,7.80
2019-04-04T07:59:09.071Z,6.80
2019-04-04T08:01:50.941Z,7.43
2019-04-04T08:04:16.059Z,6.77
2019-04-04T08:06:46.451Z,6.50
2019-04-04T08:09:20.345Z,6.90
2019-04-04T08:11:52.236Z,6.77
2019-04-04T08:14:22.550Z,7.37
2019-04-04T08:16:52.935Z,6.87
2019-04-04T08:19:23.730Z,6.73
2019-04-04T08:21:55.284Z,6.23
2019-04-04T08:24:27.960Z,7.60
2019-04-04T08:26:58.329Z,7.37
2019-04-04T08:29:28.965Z,6.90
2019-04-04T08:32:03.113Z,6.43
2019-04-04T08:34:36.238Z,6.43
2019-04-04T08:37:06.158Z,6.47
2019-04-04T08:39:38.835Z,6.50
2019-04-04T08:42:16.312Z,6.00
2019-04-04T08:44:57.807Z,6.03
2019-04-04T08:47:38.766Z,5.73
2019-04-04T08:50:10.134Z,6.20
2019-04-04T08:52:40.390Z,6.10
2019-04-04T08:55:13.390Z,6.70
2019-04-04T08:57:43.854Z,6.37
2019-04-04T09:00:16.113Z,5.73
2019-04-04T09:02:46.417Z,5.60
2019-04-04T09:05:16.646Z,5.90
2019-04-04T09:07:46.959Z,6.37
2019-04-04T09:10:17.898Z,5.40
2019-04-04T09:12:51.519Z,5.43
2019-04-04T09:15:22.362Z,5.20
2019-04-04T09:17:52.866Z,5.43
2019-04-04T09:20:23.095Z,5.63
2019-04-04T09:22:53.460Z,5.83
2019-04-04T09:25:23.854Z,6.73
2019-04-04T09:27:54.243Z,6.20
2019-04-04T09:30:26.008Z,5.93
2019-04-04T09:32:57.898Z,6.77
2019-04-04T09:35:28.287Z,6.17
2019-04-04T09:37:58.532Z,5.57
2019-04-04T09:40:30.498Z,6.60
2019-04-04T09:43:01.261Z,6.93
2019-04-04T09:45:31.631Z,7.07
2019-04-04T09:48:01.882Z,6.10
2019-04-04T09:50:32.151Z,7.20
2019-04-04T09:53:06.114Z,6.90
2019-04-04T09:55:36.699Z,6.13
2019-04-04T09:58:08.562Z,6.40
2019-04-04T10:00:41.908Z,6.20
2019-04-04T10:03:15.378Z,7.00
2019-04-04T10:05:45.696Z,5.57
2019-04-04T10:08:17.411Z,5.67
2019-04-04T10:10:47.836Z,6.13
2019-04-04T10:13:18.066Z,5.53
2019-04-04T10:15:48.489Z,5.97
2019-04-04T10:18:18.713Z,5.40
2019-04-04T10:20:48.943Z,6.57
2019-04-04T10:23:19.783Z,6.77
2019-04-04T10:25:50.150Z,5.63
2019-04-04T10:28:23.313Z,6.10
2019-04-04T10:30:53.417Z,6.40
2019-04-04T10:33:23.708Z,6.07
2019-04-04T10:35:53.993Z,5.83
2019-04-04T10:38:24.449Z,5.63
2019-04-04T10:40:54.689Z,6.30
2019-04-04T10:43:25.033Z,5.87
2019-04-04T10:45:55.256Z,5.70
2019-04-04T10:48:25.973Z,4.77
2019-04-04T10:50:57.239Z,5.73
2019-04-04T10:53:29.342Z,5.50
2019-04-04T10:55:59.570Z,5.50
2019-04-04T10:58:29.935Z,4.70
2019-04-04T11:01:02.525Z,5.30
2019-04-04T11:03:33.940Z,5.70
2019-04-04T11:06:04.198Z,5.60
2019-04-04T11:08:35.916Z,5.70
2019-04-04T11:11:06.332Z,5.83
2019-04-04T11:13:36.784Z,5.17
2019-04-04T11:16:08.151Z,5.53
2019-04-04T11:18:38.439Z,5.50
2019-04-04T11:21:08.673Z,5.57
2019-04-04T11:23:39.157Z,6.27
2019-04-04T11:26:09.719Z,6.43
2019-04-04T11:28:40.089Z,5.67
2019-04-04T11:31:10.507Z,5.80
2019-04-04T11:33:41.538Z,5.53
2019-04-04T11:36:11.838Z,6.00
2019-04-04T11:38:44.131Z,6.03
2019-04-04T11:41:15.068Z,5.73
2019-04-04T11:43:45.399Z,6.40
2019-04-04T11:46:15.661Z,5.87
2019-04-04T11:48:45.953Z,5.87
2019-04-04T11:51:16.260Z,6.20
2019-04-04T11:53:46.589Z,5.63
2019-04-04T11:56:17.024Z,5.40
2019-04-04T11:58:47.366Z,5.60
2019-04-04T12:01:18.132Z,5.57
2019-04-04T12:03:48.415Z,5.27
2019-04-04T12:06:18.818Z,5.13
2019-04-04T12:08:49.049Z,5.30
2019-04-04T12:11:22.359Z,5.63
2019-04-04T12:13:53.471Z,6.27
2019-04-04T12:16:25.496Z,6.30
2019-04-04T12:19:03.985Z,5.10
2019-04-04T12:21:37.137Z,5.80
2019-04-04T12:24:07.391Z,6.23
2019-04-04T12:26:37.855Z,5.80
2019-04-04T12:29:08.167Z,5.73
2019-04-04T12:31:38.652Z,5.93
2019-04-04T12:34:08.961Z,6.27
2019-04-04T12:36:40.016Z,5.90
2019-04-04T12:39:10.261Z,6.10
2019-04-04T12:41:42.177Z,5.57
2019-04-04T12:44:12.582Z,6.00
2019-04-04T12:46:42.980Z,6.87
2019-04-04T12:49:13.428Z,5.93
2019-04-04T12:51:45.951Z,6.00
2019-04-04T12:54:17.125Z,5.43
2019-04-04T12:56:47.370Z,5.70
2019-04-04T12:59:21.457Z,6.17
2019-04-04T13:01:51.745Z,6.10
2019-04-04T13:04:30.910Z,5.00
2019-04-04T13:06:53.915Z,6.27
2019-04-04T13:09:24.267Z,6.10
2019-04-04T13:11:56.757Z,5.83
2019-04-04T13:14:37.314Z,5.40
2019-04-04T13:17:07.681Z,6.60
2019-04-04T13:19:40.363Z,6.43
2019-04-04T13:22:10.948Z,6.77
2019-04-04T13:24:41.550Z,6.00
2019-04-04T13:27:13.609Z,6.23
2019-04-04T13:29:45.933Z,6.87
2019-04-04T13:32:16.271Z,6.20
2019-04-04T13:34:58.593Z,6.30
2019-04-04T13:37:19.079Z,6.63
2019-04-04T13:39:49.415Z,5.93
2019-04-04T13:42:19.663Z,6.37
2019-04-04T13:44:50.670Z,6.83
2019-04-04T13:47:22.044Z,6.80
2019-04-04T13:49:52.387Z,5.80
2019-04-04T13:52:24.215Z,5.87
2019-04-04T13:54:55.950Z,6.73
2019-04-04T13:57:27.245Z,6.67
2019-04-04T13:59:57.647Z,6.60
2019-04-04T14:02:29.811Z,7.03
2019-04-04T14:05:09.575Z,6.97
2019-04-04T14:07:32.086Z,6.77
2019-04-04T14:10:02.629Z,6.10
2019-04-04T14:12:32.954Z,6.30
2019-04-04T14:15:03.534Z,7.03
2019-04-04T14:17:33.895Z,6.83
2019-04-04T14:20:04.503Z,6.33
2019-04-04T14:22:34.681Z,6.70
2019-04-04T14:25:05.766Z,5.83
2019-04-04T14:27:37.613Z,6.13
2019-04-04T14:30:10.287Z,6.07
2019-04-04T14:32:41.631Z,6.40
2019-04-04T14:35:12.080Z,5.80
2019-04-04T14:37:43.389Z,6.27
2019-04-04T14:40:13.905Z,5.70
2019-04-04T14:42:44.115Z,5.73
2019-04-04T14:45:14.391Z,6.50
2019-04-04T14:47:44.981Z,5.47
2019-04-04T14:50:16.473Z,6.13
2019-04-04T14:52:46.703Z,5.97
2019-04-04T14:55:17.964Z,6.47
2019-04-04T14:57:48.467Z,6.13
2019-04-04T15:00:20.420Z,6.17
2019-04-04T15:02:50.800Z,7.03
2019-04-04T15:05:22.274Z,5.80
2019-04-04T15:07:52.496Z,6.17
2019-04-04T15:10:22.744Z,6.00
2019-04-04T15:12:52.996Z,5.87
2019-04-04T15:15:26.092Z,6.73
2019-04-04T15:17:55.335Z,5.93
2019-04-04T15:20:25.626Z,5.90
2019-04-04T15:22:55.887Z,6.77
2019-04-04T15:25:26.125Z,6.00
2019-04-04T15:27:58.815Z,5.63
2019-04-04T15:30:30.068Z,6.00
2019-04-04T15:33:02.591Z,5.80
2019-04-04T15:35:32.349Z,5.53
2019-04-04T15:38:02.633Z,5.90
2019-04-04T15:40:33.095Z,5.53
2019-04-04T15:43:04.342Z,6.30
2019-04-04T15:45:34.716Z,5.90
2019-04-04T15:48:05.004Z,5.83
2019-04-04T15:50:35.356Z,6.67
2019-04-04T15:53:05.552Z,6.50
2019-04-04T15:55:35.773Z,8.03
2019-04-04T15:58:06.303Z,6.27
2019-04-04T16:00:36.682Z,6.70
2019-04-04T16:03:09.284Z,6.50
2019-04-04T16:05:39.664Z,6.40
2019-04-04T16:08:11.136Z,6.53
2019-04-04T16:10:41.636Z,6.77
2019-04-04T16:13:11.992Z,6.17
2019-04-04T16:15:42.494Z,6.57
2019-04-04T16:18:12.751Z,6.57
2019-04-04T16:20:43.056Z,6.87
2019-04-04T16:23:13.306Z,7.10
2019-04-04T16:25:43.563Z,6.43
2019-04-04T16:28:14.200Z,6.90
2019-04-04T16:30:44.381Z,6.43
2019-04-04T16:33:14.634Z,6.43
2019-04-04T16:35:46.071Z,7.23
2019-04-04T16:38:16.256Z,7.40
2019-04-04T16:40:47.125Z,7.13
2019-04-04T16:43:17.343Z,7.40
2019-04-04T16:45:47.544Z,7.17
2019-04-04T16:48:17.791Z,7.07
2019-04-04T16:50:48.076Z,6.57
2019-04-04T16:53:18.385Z,7.07
2019-04-04T16:55:48.657Z,6.60
2019-04-04T16:58:19.203Z,6.70
2019-04-04T17:00:51.117Z,7.00
2019-04-04T17:03:23.621Z,7.03
2019-04-04T17:05:53.908Z,6.50
2019-04-04T17:08:24.092Z,6.77
2019-04-04T17:10:54.462Z,6.70
2019-04-04T17:13:24.869Z,6.70
2019-04-04T17:15:55.090Z,6.37
2019-04-04T17:18:25.474Z,6.40
2019-04-04T17:20:56.758Z,6.80
2019-04-04T17:23:26.981Z,6.50
2019-04-04T17:25:57.504Z,6.67
2019-04-04T17:28:28.676Z,6.87
2019-04-04T17:30:58.958Z,6.23
2019-04-04T17:33:31.131Z,6.83
2019-04-04T17:36:01.431Z,6.13
2019-04-04T17:38:31.782Z,6.43
2019-04-04T17:41:04.700Z,6.80
2019-04-04T17:43:34.956Z,6.00
2019-04-04T17:46:05.478Z,6.33
2019-04-04T17:48:35.821Z,6.50
2019-04-04T17:51:06.444Z,6.70
2019-04-04T17:53:36.715Z,6.20
2019-04-04T17:56:07.429Z,5.83
2019-04-04T17:58:38.037Z,6.97
2019-04-04T18:01:10.174Z,6.17
2019-04-04T18:03:40.461Z,6.93
2019-04-04T18:06:10.648Z,7.13
2019-04-04T18:08:40.868Z,6.40
2019-04-04T18:11:11.299Z,6.93
2019-04-04T18:13:41.572Z,7.50
2019-04-04T18:16:11.769Z,7.50
2019-04-04T18:18:42.024Z,7.63
2019-04-04T18:21:12.241Z,7.73
2019-04-04T18:23:42.550Z,7.40
2019-04-04T18:26:12.763Z,7.20
2019-04-04T18:28:43.497Z,7.77
2019-04-04T18:31:13.692Z,7.30
2019-04-04T18:33:44.035Z,7.33
2019-04-04T18:36:15.002Z,6.73
2019-04-04T18:38:46.012Z,7.73
2019-04-04T18:41:17.715Z,7.43
2019-04-04T18:43:48.190Z,7.77
2019-04-04T18:46:18.444Z,7.00
2019-04-04T18:48:48.755Z,6.97
2019-04-04T18:51:19.147Z,7.40
2019-04-04T18:53:49.445Z,7.03
2019-04-04T18:56:19.698Z,7.97
2019-04-04T18:58:49.932Z,7.77
2019-04-04T19:01:22.401Z,6.73
2019-04-04T19:03:52.899Z,7.73
2019-04-04T19:06:23.812Z,8.77
2019-04-04T19:08:54.063Z,8.53
2019-04-04T19:11:24.347Z,8.07
2019-04-04T19:13:54.693Z,8.13
2019-04-04T19:16:24.929Z,7.80
2019-04-04T19:18:55.132Z,7.67
2019-04-04T19:21:25.518Z,7.60
2019-04-04T19:23:55.871Z,6.73
2019-04-04T19:26:26.075Z,7.80
2019-04-04T19:28:57.977Z,7.67
2019-04-04T19:31:28.184Z,8.40
2019-04-04T19:33:58.488Z,8.70
2019-04-04T19:36:28.736Z,8.60
2019-04-04T19:38:58.968Z,8.13
2019-04-04T19:41:29.308Z,7.97
2019-04-04T19:43:59.779Z,7.77
2019-04-04T19:46:36.910Z,7.60
2019-04-04T19:49:02.890Z,8.17
2019-04-04T19:51:33.285Z,8.50
2019-04-04T19:54:03.787Z,8.90
2019-04-04T19:56:34.297Z,7.17
2019-04-04T19:59:04.697Z,7.67
2019-04-04T20:01:36.599Z,7.70
2019-04-04T20:04:07.092Z,7.70
2019-04-04T20:06:38.953Z,7.90
2019-04-04T20:09:11.307Z,8.33
2019-04-04T20:11:41.748Z,8.20
2019-04-04T20:14:11.970Z,8.20
2019-04-04T20:16:43.899Z,8.37
2019-04-04T20:19:14.252Z,7.97
2019-04-04T20:21:45.607Z,8.00
2019-04-04T20:24:17.436Z,7.77
2019-04-04T20:26:48.144Z,8.10
2019-04-04T20:29:19.201Z,8.50
2019-04-04T20:31:52.632Z,8.33
2019-04-04T20:34:22.929Z,8.50
2019-04-04T20:36:57.055Z,7.97
2019-04-04T20:39:28.657Z,8.40
2019-04-04T20:41:58.885Z,7.77
2019-04-04T20:44:29.652Z,8.47
2019-04-04T20:47:01.524Z,8.60
2019-04-04T20:49:31.773Z,7.90
2019-04-04T20:52:01.972Z,8.60
2019-04-04T20:54:32.182Z,7.97
2019-04-04T20:57:02.430Z,7.63
2019-04-04T20:59:34.986Z,8.87
2019-04-04T21:02:05.254Z,7.77
2019-04-04T21:04:35.550Z,7.80
2019-04-04T21:07:05.795Z,7.40
2019-04-04T21:09:36.061Z,7.43
2019-04-04T21:12:06.498Z,7.60
2019-04-04T21:14:37.795Z,8.73
2019-04-04T21:17:08.390Z,7.83
2019-04-04T21:19:39.021Z,7.83
2019-04-04T21:22:09.301Z,8.03
2019-04-04T21:24:39.890Z,7.93
2019-04-04T21:27:10.138Z,8.90
2019-04-04T21:29:40.847Z,7.97
2019-04-04T21:32:11.119Z,8.27
2019-04-04T21:34:41.363Z,8.03
2019-04-04T21:37:11.645Z,7.80
2019-04-04T21:39:41.888Z,8.20
2019-04-04T21:42:12.739Z,8.00
2019-04-04T21:44:42.923Z,7.17
2019-04-04T21:47:13.179Z,7.67
2019-04-04T21:49:43.472Z,8.27
2019-04-04T21:52:13.728Z,8.17
2019-04-04T21:54:43.949Z,9.10
2019-04-04T21:57:14.152Z,7.67
2019-04-04T21:59:45.095Z,7.90
2019-04-04T22:02:15.603Z,7.77
2019-04-04T22:04:45.979Z,9.33
2019-04-04T22:07:16.185Z,12.03
2019-04-04T22:09:46.405Z,14.43
2019-04-04T22:12:16.759Z,13.63
2019-04-04T22:14:47.139Z,9.17
2019-04-04T22:17:17.380Z,7.53
2019-04-04T22:19:47.597Z,8.20
2019-04-04T22:22:17.846Z,7.50
2019-04-04T22:24:48.120Z,8.00
2019-04-04T22:27:18.347Z,7.40
2019-04-04T22:29:49.005Z,8.67
2019-04-04T22:32:20.315Z,7.73
2019-04-04T22:34:50.593Z,8.07
2019-04-04T22:37:20.926Z,8.30
2019-04-04T22:39:51.190Z,8.27
2019-04-04T22:42:21.409Z,8.30
2019-04-04T22:44:51.606Z,7.83
2019-04-04T22:47:21.836Z,7.97
2019-04-04T22:49:52.160Z,7.53
2019-04-04T22:52:22.394Z,8.43
2019-04-04T22:54:52.638Z,8.73
2019-04-04T22:57:22.858Z,8.40
2019-04-04T22:59:53.080Z,8.00
2019-04-04T23:02:23.335Z,8.20
2019-04-04T23:04:53.640Z,7.80
2019-04-04T23:07:23.838Z,7.93
2019-04-04T23:09:54.087Z,8.00
2019-04-04T23:12:24.380Z,8.53
2019-04-04T23:14:54.598Z,8.63
2019-04-04T23:17:24.871Z,8.50
2019-04-04T23:19:55.156Z,7.73
2019-04-04T23:22:25.387Z,7.63
2019-04-04T23:24:55.663Z,8.60
2019-04-04T23:27:25.954Z,8.17
2019-04-04T23:29:56.405Z,9.17
2019-04-04T23:32:26.673Z,8.27
2019-04-04T23:34:56.962Z,8.23
2019-04-04T23:37:27.204Z,7.67
2019-04-04T23:39:57.440Z,9.00
2019-04-04T23:42:27.672Z,8.40
2019-04-04T23:45:01.114Z,8.23
2019-04-04T23:47:41.622Z,8.20
2019-04-04T23:50:01.856Z,7.57
2019-04-04T23:52:32.108Z,8.87
2019-04-04T23:55:02.328Z,8.30
2019-04-04T23:57:33.027Z,8.13
